Time;durP1;ratioP1;P1;durP2;ratioP2;P2;SDS_P1;SDS_P2;PMS_P1;PMS_P2;Temp;Humidity;BMP_temperature;BMP_pressure;BME280_temperature;BME280_humidity;BME280_pressure;Samples;Min_cycle;Max_cycle;Signal;HPM_P1;HPM_P2
2021/11/09 00:10:07;;;;;;;2.70;2.50;;;;;;;6.31;82.44;100150.92;420379;1316;141120;-60
2021/11/09 00:20:15;;;;;;;3.30;3.00;;;;;;;6.02;82.60;100166.57;429948;1314;224678;-61
2021/11/09 00:30:23;;;;;;;3.30;2.80;;;;;;;5.77;82.39;100181.84;429630;1316;141383;-60
2021/11/09 00:40:35;;;;;;;3.40;2.80;;;;;;;5.57;82.69;100196.74;431071;1315;141614;-61
2021/11/09 00:50:43;;;;;;;3.00;2.50;;;;;;;5.47;82.42;100217.04;416683;1316;140692;-60
2021/11/09 01:00:49;;;;;;;3.80;2.30;;;;;;;5.24;82.33;100227.33;433457;1316;141193;-61
2021/11/09 01:10:56;;;;;;;4.70;3.60;;;;;;;5.11;82.34;100233.83;418314;1316;144098;-60
2021/11/09 01:21:03;;;;;;;4.70;3.10;;;;;;;4.98;82.58;100244.98;428863;1315;141484;-61
2021/11/09 01:31:10;;;;;;;4.10;2.60;;;;;;;4.93;82.58;100263.88;426594;1316;143133;-60
2021/11/09 01:41:17;;;;;;;4.30;2.60;;;;;;;4.85;82.57;100269.31;429946;1316;142153;-60
2021/11/09 01:51:23;;;;;;;2.50;2.30;;;;;;;4.77;82.44;100270.73;428445;1316;141378;-61
2021/11/09 02:01:30;;;;;;;7.40;4.20;;;;;;;4.77;82.60;100281.34;429778;1316;142233;-61
2021/11/09 02:11:36;;;;;;;6.40;4.70;;;;;;;4.76;82.53;100287.58;419258;1316;143552;-60
2021/11/09 02:21:43;;;;;;;6.00;4.40;;;;;;;4.76;82.59;100302.53;422541;1316;141891;-61
2021/11/09 02:31:49;;;;;;;6.20;4.80;;;;;;;4.71;82.22;100313.59;426294;1314;141706;-63
2021/11/09 02:41:55;;;;;;;6.30;4.10;;;;;;;4.70;82.16;100317.09;425225;1313;141748;-60
2021/11/09 02:52:03;;;;;;;6.40;4.80;;;;;;;4.66;82.10;100317.73;426886;1316;141115;-61
2021/11/09 03:02:17;;;;;;;5.80;5.20;;;;;;;4.34;81.93;100329.84;431541;1315;141095;-60
2021/11/09 03:12:29;;;;;;;6.40;4.80;;;;;;;3.96;82.24;100337.71;424566;1312;141175;-60
2021/11/09 03:53:47;;;;;;;6.90;5.70;;;;;;;3.05;83.55;100377.13;430084;1316;141610;-60
2021/11/09 04:04:10;;;;;;;8.00;5.20;;;;;;;2.86;83.83;100397.04;430295;1314;140689;-61
2021/11/09 04:14:24;;;;;;;11.30;6.50;;;;;;;2.66;83.80;100404.15;417508;1316;141512;-61
2021/11/09 04:35:23;;;;;;;9.90;6.60;;;;;;;2.41;84.62;100433.96;432057;1316;141922;-60
2021/11/09 05:16:54;;;;;;;15.80;10.90;;;;;;;3.12;84.58;100530.63;421671;1316;144613;-61
2021/11/09 05:27:01;;;;;;;12.70;10.60;;;;;;;3.18;84.62;100539.34;429870;1315;141561;-60
2021/11/09 05:37:10;;;;;;;9.60;8.50;;;;;;;3.26;84.03;100574.48;430412;1314;142223;-61
2021/11/09 05:47:16;;;;;;;9.70;8.20;;;;;;;3.32;83.39;100590.83;430009;1316;142000;-60
2021/11/09 05:57:22;;;;;;;8.30;7.40;;;;;;;3.41;83.20;100604.34;420217;1315;141348;-60
2021/11/09 06:07:28;;;;;;;11.80;8.80;;;;;;;3.50;83.09;100624.79;432633;1315;141614;-60
2021/11/09 06:17:34;;;;;;;14.10;10.20;;;;;;;3.65;82.74;100654.47;432556;1315;140697;-59
2021/11/09 06:27:40;;;;;;;10.90;8.50;;;;;;;3.75;82.33;100671.61;433978;1312;142697;-60
2021/11/09 06:37:45;;;;;;;11.40;9.70;;;;;;;3.84;81.98;100686.52;434035;1313;141911;-63
2021/11/09 06:47:52;;;;;;;12.10;10.80;;;;;;;3.91;81.71;100709.09;433540;1313;141672;-62
2021/11/09 06:57:58;;;;;;;15.20;12.20;;;;;;;3.93;81.52;100728.27;432312;1314;141690;-62
2021/11/09 07:08:04;;;;;;;16.30;12.40;;;;;;;4.05;81.24;100748.34;433640;1313;141768;-62
2021/11/09 07:18:11;;;;;;;15.50;13.70;;;;;;;4.22;81.08;100767.95;432161;1312;141898;-62
2021/11/09 07:28:17;;;;;;;14.00;12.60;;;;;;;4.33;80.19;100789.25;429607;1313;140828;-66
2021/11/09 07:38:23;;;;;;;17.60;13.40;;;;;;;4.73;80.08;100808.39;420780;1313;141202;-68
2021/11/09 07:48:29;;;;;;;25.10;19.90;;;;;;;5.50;79.11;100816.14;418860;1314;141123;-62
2021/11/09 07:58:41;;;;;;;23.80;19.20;;;;;;;7.04;78.68;100822.92;427175;1313;142259;-65
2021/11/09 08:09:03;;;;;;;14.70;13.20;;;;;;;12.65;74.12;100826.34;433005;1313;141410;-65
2021/11/09 08:19:10;;;;;;;17.60;15.80;;;;;;;14.57;68.25;100837.44;423076;1313;492860;-64
2021/11/09 08:29:19;;;;;;;11.00;10.00;;;;;;;16.75;64.56;100843.80;424536;1313;140207;-69
2021/11/09 08:39:37;;;;;;;9.50;8.70;;;;;;;18.47;60.33;100847.15;419514;1313;144293;-72
2021/11/09 08:49:44;;;;;;;10.30;9.50;;;;;;;19.87;57.16;100863.69;428058;1313;143534;-74
2021/11/09 09:10:17;;;;;;;12.20;11.10;;;;;;;24.01;50.05;100883.30;422256;1313;145215;-68
2021/11/09 09:20:25;;;;;;;11.40;9.30;;;;;;;24.01;47.56;100893.34;432141;1313;143091;-67
2021/11/09 09:30:37;;;;;;;9.60;8.70;;;;;;;18.13;48.68;100910.23;432175;1313;140561;-67
2021/11/09 10:01:31;;;;;;;6.90;6.20;;;;;;;10.00;54.97;100932.67;434203;1313;141859;-68
2021/11/09 10:11:40;;;;;;;8.50;7.50;;;;;;;9.16;56.85;100942.16;432107;1313;141547;-60
2021/11/09 10:21:46;;;;;;;12.40;8.50;;;;;;;8.54;58.25;100949.91;432608;1313;140685;-67
2021/11/09 10:31:52;;;;;;;12.20;7.90;;;;;;;8.13;59.75;100960.10;434201;1312;141089;-61
2021/11/09 10:42:11;;;;;;;7.90;6.90;;;;;;;7.98;60.24;100962.48;433229;1312;141257;-68
2021/11/09 10:52:24;;;;;;;7.70;6.90;;;;;;;7.71;60.58;100968.35;423429;1314;140353;-59
2021/11/09 11:13:14;;;;;;;18.90;12.70;;;;;;;8.03;62.41;100978.04;433547;1315;141658;-71
2021/11/09 11:23:20;;;;;;;15.70;11.20;;;;;;;8.20;62.41;100988.29;434195;1314;141510;-65
2021/11/09 11:33:28;;;;;;;13.90;9.20;;;;;;;8.32;62.64;100985.65;431987;1315;141302;-61
2021/11/09 11:43:54;;;;;;;8.40;7.20;;;;;;;8.49;62.58;100997.86;432612;1314;141428;-69
2021/11/09 11:54:01;;;;;;;12.60;8.10;;;;;;;8.79;62.42;101000.36;433322;1312;141193;-63
2021/11/09 12:04:10;;;;;;;9.70;8.10;;;;;;;8.61;62.12;101002.22;432494;1313;140882;-64
2021/11/09 12:14:18;;;;;;;13.20;9.90;;;;;;;8.37;62.57;101003.31;433941;1312;141090;-66
2021/11/09 12:24:24;;;;;;;10.10;7.80;;;;;;;8.09;62.77;101011.83;433278;1312;141836;-60
2021/11/09 12:34:57;;;;;;;12.90;9.30;;;;;;;7.68;63.21;101016.90;434018;1313;141390;-62
2021/11/09 12:45:14;;;;;;;9.10;8.20;;;;;;;7.45;63.75;101027.99;431807;1313;141844;-61
2021/11/09 12:55:20;;;;;;;13.50;9.00;;;;;;;7.44;64.10;101023.15;434113;1314;142814;-62
2021/11/09 13:05:48;;;;;;;10.10;7.40;;;;;;;7.48;64.11;101023.21;434289;1314;142332;-60
2021/11/09 13:15:55;;;;;;;7.30;6.60;;;;;;;7.34;64.05;101029.16;434262;1312;142103;-61
2021/11/09 13:26:01;;;;;;;24.00;10.20;;;;;;;7.04;64.70;101025.43;418763;1313;141190;-63
2021/11/09 13:36:07;;;;;;;12.00;7.20;;;;;;;6.76;65.36;101032.76;418106;1312;141874;-61
2021/11/09 13:46:16;;;;;;;15.70;9.40;;;;;;;6.53;65.43;101039.59;417786;1314;143788;-68
2021/11/09 13:56:25;;;;;;;14.70;10.20;;;;;;;6.28;65.87;101042.60;428608;1313;141779;-66
2021/11/09 14:16:55;;;;;;;14.60;12.30;;;;;;;5.98;66.33;101032.97;429894;1313;142660;-63
2021/11/09 14:27:07;;;;;;;17.30;10.40;;;;;;;5.90;66.52;101035.05;430606;1317;141334;-69
2021/11/09 14:37:19;;;;;;;13.50;9.50;;;;;;;5.79;67.06;101035.11;422390;1313;142309;-63
2021/11/09 14:47:25;;;;;;;14.50;10.40;;;;;;;5.66;67.76;101039.02;432731;1313;143969;-63
2021/11/09 14:57:40;;;;;;;22.00;11.00;;;;;;;5.47;68.06;101044.77;432261;1314;141632;-69
2021/11/09 15:07:58;;;;;;;17.30;9.80;;;;;;;5.44;68.57;101050.21;430872;1314;141069;-61
2021/11/09 15:28:31;;;;;;;22.40;15.90;;;;;;;5.40;69.52;101064.88;417736;1314;141758;-61
2021/11/09 15:38:37;;;;;;;23.30;17.00;;;;;;;5.38;69.62;101063.70;416755;1314;142853;-61
2021/11/09 15:48:44;;;;;;;21.90;15.40;;;;;;;5.34;69.89;101055.27;433003;1313;142014;-62
2021/11/09 15:58:50;;;;;;;16.90;13.70;;;;;;;5.02;70.16;101044.36;432337;1314;142135;-66
2021/11/09 16:08:56;;;;;;;23.20;16.70;;;;;;;4.45;70.88;101047.90;432942;1315;144242;-66
2021/11/09 16:19:02;;;;;;;32.40;21.40;;;;;;;4.03;71.63;101057.85;432510;1313;267801;-65
2021/11/09 16:29:08;;;;;;;33.60;22.60;;;;;;;3.73;72.46;101058.39;427052;1313;141132;-66
2021/11/09 16:39:21;;;;;;;22.40;16.90;;;;;;;3.48;73.11;101068.04;433254;1313;144579;-66
2021/11/09 16:49:42;;;;;;;25.10;18.70;;;;;;;3.27;73.76;101078.46;432652;1314;145573;-64
2021/11/09 17:00:13;;;;;;;41.40;27.50;;;;;;;3.11;74.51;101081.04;431933;1313;141338;-65
2021/11/09 18:23:06;;;;;;;49.40;33.10;;;;;;;2.24;77.05;101137.30;433345;1313;142346;-65
2021/11/09 18:33:13;;;;;;;50.80;34.10;;;;;;;2.16;77.47;101141.83;417170;1312;141753;-62
2021/11/09 18:43:23;;;;;;;50.70;34.20;;;;;;;2.03;77.45;101142.23;427255;1313;141553;-61
2021/11/09 18:53:29;;;;;;;49.80;32.50;;;;;;;1.91;77.93;101130.86;421814;1313;145299;-61
2021/11/09 19:03:36;;;;;;;47.90;34.60;;;;;;;1.79;77.92;101124.69;422855;1313;141486;-59
2021/11/09 19:13:42;;;;;;;42.50;30.00;;;;;;;1.72;78.60;101133.69;425795;1313;141204;-63
2021/11/09 19:23:49;;;;;;;37.60;26.30;;;;;;;1.73;78.95;101131.27;417151;1312;142972;-62
2021/11/09 19:33:56;;;;;;;37.50;26.00;;;;;;;1.67;79.29;101141.64;418194;1313;143301;-63
2021/11/09 19:44:06;;;;;;;47.50;26.50;;;;;;;1.53;79.41;101143.39;421919;1311;144777;-61
2021/11/09 19:54:14;;;;;;;39.90;29.80;;;;;;;1.38;79.47;101154.45;433175;1313;142276;-56
2021/11/09 20:04:20;;;;;;;33.70;25.80;;;;;;;1.40;79.80;101164.29;433073;1312;144260;-55
2021/11/09 20:14:33;;;;;;;35.70;26.20;;;;;;;1.47;80.05;101166.17;433822;1314;143666;-56
2021/11/09 20:24:42;;;;;;;33.30;24.90;;;;;;;1.56;79.85;101163.92;419318;1313;10003942;-56
2021/11/09 20:34:48;;;;;;;35.90;24.60;;;;;;;1.65;80.23;101168.41;431502;1313;142426;-55
2021/11/09 20:44:55;;;;;;;38.10;26.70;;;;;;;1.69;80.25;101166.84;431687;1313;142530;-56
2021/11/09 20:55:01;;;;;;;32.10;23.80;;;;;;;1.70;80.40;101168.74;433843;1312;142380;-59
2021/11/09 21:05:08;;;;;;;32.10;22.20;;;;;;;1.65;80.34;101169.09;432678;1313;143593;-59
2021/11/09 21:25:43;;;;;;;34.80;23.90;;;;;;;1.51;80.63;101170.15;433504;1313;142939;-60
2021/11/09 21:35:49;;;;;;;31.50;21.00;;;;;;;1.48;80.93;101166.70;433161;1313;141755;-59
2021/11/09 21:45:55;;;;;;;29.80;20.00;;;;;;;1.50;81.17;101159.63;430312;1313;141471;-61
2021/11/09 21:56:01;;;;;;;29.80;18.90;;;;;;;1.50;81.57;101152.20;433643;1311;142467;-60
2021/11/09 22:06:07;;;;;;;24.40;18.10;;;;;;;1.46;81.49;101153.23;413093;1314;10002350;-61
2021/11/09 22:16:13;;;;;;;32.90;21.40;;;;;;;1.43;81.65;101149.10;433003;1315;141744;-59
2021/11/09 22:26:19;;;;;;;29.60;20.40;;;;;;;1.44;81.95;101141.51;433839;1312;141359;-67
2021/11/09 22:36:25;;;;;;;22.30;16.60;;;;;;;1.46;82.01;101133.39;425511;1313;144495;-67
2021/11/09 22:46:31;;;;;;;28.70;21.30;;;;;;;1.47;82.21;101110.10;420794;1312;146201;-65
2021/11/09 22:56:37;;;;;;;27.60;19.00;;;;;;;1.46;82.17;101085.25;432941;1314;143893;-62
2021/11/09 23:06:43;;;;;;;27.00;19.00;;;;;;;1.45;82.48;101067.82;433975;1313;141980;-63
2021/11/09 23:16:50;;;;;;;29.60;20.90;;;;;;;1.46;82.35;101049.70;426983;1314;141804;-65
2021/11/09 23:26:56;;;;;;;28.70;21.70;;;;;;;1.46;82.95;101019.48;430104;1314;141272;-68
2021/11/09 23:37:03;;;;;;;30.50;22.50;;;;;;;1.50;83.11;100996.52;433554;1313;141803;-65
2021/11/09 23:47:09;;;;;;;32.70;21.80;;;;;;;1.52;83.21;100982.35;432596;1312;142358;-67
2021/11/09 23:57:15;;;;;;;25.60;19.50;;;;;;;1.61;83.57;100967.83;432436;1312;142062;-64
